createdAt,value
2023-03-21T00:00:22.435Z,193.67
2023-03-21T00:01:00.655Z,193.67
2023-03-21T00:01:32.467Z,188.33
2023-03-21T00:02:04.345Z,183.67
2023-03-21T00:02:36.115Z,182.33
2023-03-21T00:03:09.081Z,181.00
2023-03-21T00:03:43.286Z,180.00
2023-03-21T00:04:15.090Z,181.33
2023-03-21T00:04:52.258Z,185.00
2023-03-21T00:05:25.756Z,187.00
2023-03-21T00:05:57.892Z,186.33
2023-03-21T00:06:29.696Z,185.00
2023-03-21T00:07:01.483Z,185.67
2023-03-21T00:07:33.221Z,187.00
2023-03-21T00:08:05.089Z,186.33
2023-03-21T00:08:38.117Z,186.00
2023-03-21T00:09:09.887Z,185.33
2023-03-21T00:09:41.612Z,184.67
2023-03-21T00:10:18.084Z,184.33
2023-03-21T00:11:01.728Z,185.33
2023-03-21T00:11:33.596Z,186.33
2023-03-21T00:12:07.544Z,192.33
2023-03-21T00:12:39.515Z,199.67
2023-03-21T00:13:15.942Z,205.00
2023-03-21T00:13:47.785Z,210.00
2023-03-21T00:14:20.497Z,215.33
2023-03-21T00:14:54.147Z,216.33
2023-03-21T00:15:30.627Z,219.00
2023-03-21T00:16:24.026Z,215.00
2023-03-21T00:17:00.846Z,212.67
2023-03-21T00:17:33.750Z,212.00
2023-03-21T00:18:11.445Z,211.67
2023-03-21T00:18:54.214Z,211.00
2023-03-21T00:19:26.657Z,210.00
2023-03-21T00:19:59.545Z,209.67
2023-03-21T00:20:34.415Z,204.67
2023-03-21T00:21:37.768Z,191.33
2023-03-21T00:22:07.649Z,184.67
2023-03-21T00:22:40.108Z,183.00
2023-03-21T00:23:12.192Z,179.33
2023-03-21T00:23:45.945Z,178.00
2023-03-21T00:24:17.864Z,181.33
2023-03-21T00:24:49.597Z,182.67
2023-03-21T00:25:21.418Z,182.33
2023-03-21T00:25:53.582Z,183.33
2023-03-21T00:26:25.985Z,184.00
2023-03-21T00:27:12.538Z,183.67
2023-03-21T00:28:01.426Z,183.00
2023-03-21T00:28:43.645Z,179.33
2023-03-21T00:29:15.576Z,180.67
2023-03-21T00:29:51.392Z,181.00
2023-03-21T00:30:24.097Z,180.33
2023-03-21T00:30:59.873Z,181.00
2023-03-21T00:31:31.613Z,181.00
2023-03-21T00:32:03.380Z,180.00
2023-03-21T00:32:39.768Z,180.00
2023-03-21T00:33:22.321Z,181.00
2023-03-21T00:33:54.532Z,181.00
2023-03-21T00:34:36.681Z,181.00
2023-03-21T00:35:51.678Z,182.00
2023-03-21T00:36:10.238Z,182.33
2023-03-21T00:36:42.209Z,183.33
2023-03-21T00:37:16.836Z,184.00
2023-03-21T00:37:48.757Z,185.33
2023-03-21T00:38:21.765Z,187.00
2023-03-21T00:38:54.401Z,188.00
2023-03-21T00:39:26.178Z,188.00
2023-03-21T00:39:57.947Z,188.00
2023-03-21T00:40:35.086Z,188.00
2023-03-21T00:41:23.351Z,188.00
2023-03-21T00:42:03.965Z,188.00
2023-03-21T00:42:36.482Z,187.67
2023-03-21T00:43:08.241Z,188.00
2023-03-21T00:43:40.310Z,188.00
2023-03-21T00:44:15.679Z,188.00
2023-03-21T00:44:47.808Z,190.00
2023-03-21T00:45:22.218Z,192.00
2023-03-21T00:45:54.115Z,193.00
2023-03-21T00:46:30.085Z,193.00
2023-03-21T00:47:08.238Z,192.00
2023-03-21T00:47:40.155Z,193.00
2023-03-21T00:48:13.325Z,195.33
2023-03-21T00:48:45.170Z,196.00
2023-03-21T00:49:17.168Z,195.33
2023-03-21T00:49:48.983Z,194.33
2023-03-21T00:50:20.851Z,193.00
2023-03-21T00:50:54.539Z,189.33
2023-03-21T00:51:27.224Z,186.00
2023-03-21T00:52:14.714Z,183.33
2023-03-21T00:52:47.692Z,183.00
2023-03-21T00:53:20.126Z,181.00
2023-03-21T00:53:56.822Z,175.67
2023-03-21T00:54:28.775Z,172.67
2023-03-21T00:55:01.646Z,174.00
2023-03-21T00:55:33.858Z,175.00
2023-03-21T00:56:05.865Z,176.33
2023-03-21T00:56:37.643Z,178.00
2023-03-21T00:57:09.408Z,181.00
2023-03-21T00:57:43.597Z,185.67
2023-03-21T00:58:16.701Z,197.00
2023-03-21T00:58:48.589Z,204.33
2023-03-21T00:59:21.789Z,206.33
2023-03-21T00:59:53.619Z,208.67
2023-03-21T01:00:25.500Z,208.00
2023-03-21T01:00:57.742Z,208.00
2023-03-21T01:01:32.312Z,208.00
2023-03-21T01:02:07.547Z,207.00
2023-03-21T01:03:02.643Z,207.33
2023-03-21T01:03:42.841Z,206.33
2023-03-21T01:04:17.039Z,205.67
2023-03-21T01:04:50.618Z,205.00
2023-03-21T01:05:44.158Z,205.00
2023-03-21T01:06:19.514Z,204.33
2023-03-21T01:06:51.447Z,203.67
2023-03-21T01:07:23.218Z,202.67
2023-03-21T01:07:55.543Z,202.00
2023-03-21T01:08:35.290Z,201.33
2023-03-21T01:09:18.789Z,201.00
2023-03-21T01:09:51.309Z,201.00
2023-03-21T01:10:23.682Z,201.00
2023-03-21T01:10:56.334Z,200.33
2023-03-21T01:11:29.005Z,198.33
2023-03-21T01:12:01.202Z,196.00
2023-03-21T01:12:32.985Z,191.33
2023-03-21T01:13:04.723Z,177.67
2023-03-21T01:13:40.733Z,172.33
2023-03-21T01:14:22.454Z,173.67
2023-03-21T01:14:54.964Z,171.33
2023-03-21T01:15:26.746Z,176.00
2023-03-21T01:15:59.133Z,177.67
2023-03-21T01:16:31.196Z,178.33
2023-03-21T01:17:03.108Z,179.33
2023-03-21T01:17:34.888Z,180.00
2023-03-21T01:18:06.619Z,180.33
2023-03-21T01:18:40.482Z,181.00
2023-03-21T01:19:25.076Z,181.67
2023-03-21T01:19:58.206Z,183.33
2023-03-21T01:20:30.172Z,189.67
2023-03-21T01:21:02.449Z,202.00
2023-03-21T01:21:35.835Z,209.67
2023-03-21T01:22:08.826Z,210.00
2023-03-21T01:22:40.850Z,205.67
2023-03-21T01:23:15.451Z,199.67
2023-03-21T01:23:47.985Z,171.00
2023-03-21T01:24:19.757Z,161.67
2023-03-21T01:24:58.341Z,164.33
2023-03-21T01:25:32.585Z,165.33
2023-03-21T01:26:04.614Z,166.67
2023-03-21T01:26:37.657Z,143.33
2023-03-21T01:27:09.484Z,145.67
2023-03-21T01:27:41.286Z,160.33
2023-03-21T01:28:13.064Z,163.67
2023-03-21T01:28:45.926Z,163.67
2023-03-21T01:29:17.716Z,165.33
2023-03-21T01:29:49.520Z,166.33
2023-03-21T01:30:24.033Z,167.00
2023-03-21T01:30:57.176Z,168.00
2023-03-21T01:31:29.095Z,168.33
2023-03-21T01:32:01.463Z,168.00
2023-03-21T01:32:33.245Z,165.33
2023-03-21T01:33:05.281Z,164.33
2023-03-21T01:33:37.063Z,164.00
2023-03-21T01:34:08.794Z,163.33
2023-03-21T01:34:40.681Z,162.00
2023-03-21T01:35:12.542Z,160.33
2023-03-21T01:35:50.375Z,159.00
2023-03-21T01:36:26.619Z,159.00
2023-03-21T01:36:58.542Z,158.33
2023-03-21T01:37:30.652Z,158.00
2023-03-21T01:38:02.387Z,157.00
2023-03-21T01:38:34.486Z,156.33
2023-03-21T01:39:07.019Z,156.00
2023-03-21T01:39:38.919Z,156.00
2023-03-21T01:40:22.569Z,157.00
2023-03-21T01:40:54.738Z,157.00
2023-03-21T01:41:41.912Z,157.00
2023-03-21T01:42:15.597Z,154.33
2023-03-21T01:42:47.445Z,150.00
2023-03-21T01:43:34.041Z,145.67
2023-03-21T01:44:06.736Z,137.67
2023-03-21T01:44:59.133Z,135.00
2023-03-21T01:46:08.018Z,141.67
2023-03-21T01:47:00.476Z,144.67
2023-03-21T01:47:34.212Z,146.00
2023-03-21T01:48:06.221Z,146.00
2023-03-21T01:48:42.166Z,147.00
2023-03-21T01:49:26.627Z,147.00
2023-03-21T01:50:02.802Z,144.33
2023-03-21T01:50:37.103Z,135.33
2023-03-21T01:51:13.630Z,131.00
2023-03-21T01:51:58.668Z,131.67
2023-03-21T01:52:39.049Z,135.00
2023-03-21T01:53:11.797Z,134.33
2023-03-21T01:53:43.815Z,125.00
2023-03-21T01:54:24.828Z,126.67
2023-03-21T01:54:58.740Z,130.67
2023-03-21T01:55:31.585Z,124.00
2023-03-21T01:56:11.512Z,111.00
2023-03-21T01:56:47.235Z,86.00
2023-03-21T01:58:02.094Z,88.33
2023-03-21T01:58:37.800Z,103.67
2023-03-21T01:59:21.574Z,103.33
2023-03-21T01:59:54.822Z,112.33
2023-03-21T02:00:29.605Z,114.33
2023-03-21T02:01:04.944Z,115.33
2023-03-21T02:01:38.497Z,116.67
2023-03-21T02:02:20.924Z,117.00
2023-03-21T02:02:58.318Z,118.00
2023-03-21T02:03:50.611Z,115.00
2023-03-21T02:04:28.317Z,111.67
2023-03-21T02:05:04.037Z,113.33
2023-03-21T02:05:47.840Z,114.00
2023-03-21T02:06:36.862Z,114.33
2023-03-21T02:07:14.097Z,115.33
2023-03-21T02:07:46.097Z,116.00
2023-03-21T02:08:18.494Z,116.33
2023-03-21T02:08:50.599Z,117.00
2023-03-21T02:09:28.379Z,117.00
2023-03-21T02:10:01.872Z,117.00
2023-03-21T02:10:33.431Z,117.00
2023-03-21T02:11:06.387Z,117.00
2023-03-21T02:11:39.144Z,117.00
2023-03-21T02:12:11.229Z,116.33
2023-03-21T02:12:43.044Z,116.00
2023-03-21T02:13:15.956Z,116.00
2023-03-21T02:13:50.172Z,116.00
2023-03-21T02:14:29.309Z,117.00
2023-03-21T02:15:01.945Z,117.00
2023-03-21T02:15:36.287Z,117.00
2023-03-21T02:16:32.257Z,117.67
2023-03-21T02:17:27.186Z,119.33
2023-03-21T02:18:11.435Z,121.00
2023-03-21T02:18:43.278Z,121.00
2023-03-21T02:19:32.859Z,121.00
2023-03-21T02:20:11.720Z,117.67
2023-03-21T02:20:59.203Z,112.00
2023-03-21T02:21:48.867Z,96.33
2023-03-21T02:22:55.702Z,97.67
2023-03-21T02:23:51.407Z,98.67
2023-03-21T02:24:59.525Z,97.00
2023-03-21T02:25:53.611Z,98.33
2023-03-21T02:27:03.564Z,95.67
2023-03-21T02:27:52.484Z,96.00
2023-03-21T02:28:31.125Z,95.67
2023-03-21T02:29:21.896Z,95.00
2023-03-21T02:30:29.605Z,96.00
2023-03-21T02:31:37.202Z,97.33
2023-03-21T02:32:37.740Z,96.00
2023-03-21T02:33:37.723Z,93.67
2023-03-21T02:34:38.283Z,90.67
2023-03-21T02:35:19.077Z,81.33
2023-03-21T02:36:14.316Z,78.67
2023-03-21T02:37:03.191Z,79.67
2023-03-21T02:38:00.557Z,78.67
2023-03-21T02:38:43.424Z,80.67
2023-03-21T02:39:26.678Z,82.00
2023-03-21T02:40:29.837Z,83.00
2023-03-21T02:41:20.178Z,84.00
2023-03-21T02:42:05.670Z,83.67
2023-03-21T02:43:22.583Z,84.00
2023-03-21T02:44:14.015Z,85.00
2023-03-21T02:45:00.419Z,86.00
2023-03-21T02:45:47.004Z,85.67
2023-03-21T02:46:33.271Z,85.00
2023-03-21T02:47:31.560Z,85.67
2023-03-21T02:48:41.075Z,87.00
2023-03-21T02:49:43.362Z,90.00
2023-03-21T02:50:32.075Z,92.00
2023-03-21T02:51:07.954Z,92.67
2023-03-21T02:51:43.520Z,94.33
2023-03-21T02:52:35.614Z,95.00
2023-03-21T02:53:15.438Z,96.00
2023-03-21T02:54:21.415Z,95.67
2023-03-21T02:54:49.028Z,95.00
2023-03-21T02:55:26.527Z,94.67
2023-03-21T02:56:00.610Z,92.33
2023-03-21T02:56:33.778Z,92.00
2023-03-21T02:57:06.879Z,92.00
2023-03-21T02:57:43.285Z,92.00
2023-03-21T02:58:20.266Z,92.00
2023-03-21T02:58:53.677Z,92.00
2023-03-21T02:59:27.718Z,92.00
2023-03-21T03:00:10.601Z,92.00
2023-03-21T03:00:49.581Z,92.33
2023-03-21T03:01:21.432Z,92.00
2023-03-21T03:01:55.314Z,91.67
2023-03-21T03:02:30.961Z,90.33
2023-03-21T03:03:09.859Z,88.67
2023-03-21T03:03:43.371Z,85.67
2023-03-21T03:04:27.503Z,82.33
2023-03-21T03:05:00.731Z,82.67
2023-03-21T03:05:40.546Z,83.00
2023-03-21T03:09:43.589Z,86.00
2023-03-21T03:10:23.466Z,86.67
2023-03-21T03:11:22.878Z,94.00
2023-03-21T03:12:10.493Z,133.67
2023-03-21T03:12:42.467Z,121.67
2023-03-21T03:13:26.479Z,122.00
2023-03-21T03:14:31.589Z,131.33
2023-03-21T03:15:08.338Z,135.00
2023-03-21T03:15:45.816Z,127.00
2023-03-21T03:16:28.321Z,122.67
2023-03-21T03:17:32.946Z,122.00
2023-03-21T03:18:10.600Z,122.00
2023-03-21T03:18:56.929Z,123.00
2023-03-21T03:19:39.110Z,125.67
2023-03-21T03:20:27.210Z,125.00
2023-03-21T03:21:20.654Z,124.67
2023-03-21T03:21:59.038Z,123.00
2023-03-21T03:22:49.223Z,121.00
2023-03-21T03:24:00.473Z,115.33
2023-03-21T03:24:47.205Z,112.00
2023-03-21T03:25:39.841Z,110.00
2023-03-21T03:26:20.429Z,108.67
2023-03-21T03:27:10.456Z,105.67
2023-03-21T03:27:45.166Z,103.67
2023-03-21T03:28:25.196Z,106.00
2023-03-21T03:29:02.032Z,107.00
2023-03-21T03:29:37.645Z,107.00
2023-03-21T03:30:12.869Z,105.67
2023-03-21T03:30:57.148Z,105.33
2023-03-21T03:31:45.154Z,109.00
2023-03-21T03:32:27.228Z,109.00
2023-03-21T03:33:03.309Z,107.67
2023-03-21T03:33:41.560Z,105.67
2023-03-21T03:34:20.741Z,102.67
2023-03-21T03:34:58.544Z,100.33
2023-03-21T03:35:30.859Z,94.00
2023-03-21T03:36:06.843Z,90.67
2023-03-21T03:36:43.351Z,91.00
2023-03-21T03:37:20.563Z,87.67
2023-03-21T03:37:58.076Z,82.00
2023-03-21T03:38:32.271Z,82.33
2023-03-21T03:39:09.122Z,84.67
2023-03-21T03:39:48.029Z,86.00
2023-03-21T03:40:30.680Z,85.00
2023-03-21T03:41:19.745Z,84.67
2023-03-21T03:42:15.520Z,80.33
2023-03-21T03:42:54.056Z,75.00
2023-03-21T03:43:35.444Z,76.00
2023-03-21T03:44:07.288Z,74.00
2023-03-21T03:44:39.819Z,71.33
2023-03-21T03:45:12.425Z,70.33
2023-03-21T03:45:50.675Z,69.00
2023-03-21T03:46:37.182Z,67.67
2023-03-21T03:47:35.075Z,66.00
2023-03-21T03:48:25.304Z,61.00
2023-03-21T03:49:08.059Z,58.67
2023-03-21T03:49:49.864Z,56.67
2023-03-21T03:50:39.160Z,57.33
2023-03-21T03:51:22.986Z,57.33
2023-03-21T03:52:18.711Z,48.33
2023-03-21T03:52:57.319Z,50.67
2023-03-21T03:53:43.306Z,51.67
2023-03-21T03:54:21.200Z,53.67
2023-03-21T03:54:53.912Z,53.33
2023-03-21T03:55:28.513Z,43.33
2023-03-21T03:56:01.631Z,36.67
2023-03-21T03:56:33.746Z,44.67
2023-03-21T03:57:08.221Z,48.33
2023-03-21T03:57:41.008Z,49.33
2023-03-21T03:58:22.793Z,50.00
2023-03-21T03:58:58.587Z,51.00
2023-03-21T03:59:30.407Z,52.67
2023-03-21T04:00:02.390Z,68.67
2023-03-21T04:00:35.421Z,82.67
2023-03-21T04:01:07.619Z,145.67
2023-03-21T04:01:39.426Z,134.00
2023-03-21T04:02:11.704Z,110.33
2023-03-21T04:02:43.542Z,94.67
2023-03-21T04:03:16.087Z,88.33
2023-03-21T04:04:00.814Z,80.00
2023-03-21T04:04:36.932Z,63.67
2023-03-21T04:05:09.634Z,54.67
2023-03-21T04:05:42.203Z,45.33
2023-03-21T04:06:14.619Z,42.67
2023-03-21T04:06:51.778Z,42.67
2023-03-21T04:07:23.681Z,40.67
2023-03-21T04:07:55.520Z,37.00
2023-03-21T04:08:27.435Z,32.33
2023-03-21T04:09:01.624Z,36.00
2023-03-21T04:09:44.136Z,41.33
2023-03-21T04:10:17.638Z,44.00
2023-03-21T04:10:49.747Z,42.33
2023-03-21T04:11:21.677Z,43.00
2023-03-21T04:11:53.456Z,43.00
2023-03-21T04:12:25.703Z,42.67
2023-03-21T04:12:57.444Z,38.67
2023-03-21T04:13:29.185Z,36.33
2023-03-21T04:14:01.158Z,36.00
2023-03-21T04:14:43.965Z,35.33
2023-03-21T04:15:17.427Z,36.33
2023-03-21T04:15:49.258Z,37.00
2023-03-21T04:16:21.083Z,36.33
2023-03-21T04:16:52.886Z,33.33
2023-03-21T04:17:24.674Z,31.33
2023-03-21T04:17:56.652Z,32.00
2023-03-21T04:18:28.440Z,31.33
2023-03-21T04:19:00.635Z,32.00
2023-03-21T04:19:32.694Z,32.00
2023-03-21T04:20:12.882Z,32.00
2023-03-21T04:20:49.436Z,33.00
2023-03-21T04:21:22.033Z,33.00
2023-03-21T04:21:53.815Z,34.00
2023-03-21T04:22:27.081Z,46.00
2023-03-21T04:22:58.833Z,115.33
2023-03-21T04:23:30.563Z,121.33
2023-03-21T04:24:02.594Z,116.67
2023-03-21T04:24:37.515Z,90.00
2023-03-21T04:25:09.692Z,79.00
2023-03-21T04:25:53.959Z,78.33
2023-03-21T04:26:33.044Z,86.33
2023-03-21T04:27:08.180Z,121.00
2023-03-21T04:27:39.931Z,140.33
2023-03-21T04:28:12.779Z,139.00
2023-03-21T04:28:44.524Z,119.33
2023-03-21T04:29:16.273Z,106.67
2023-03-21T04:29:48.694Z,96.33
2023-03-21T04:30:20.466Z,93.00
2023-03-21T04:31:02.236Z,87.00
2023-03-21T04:31:36.089Z,76.33
2023-03-21T04:32:16.476Z,71.33
2023-03-21T04:32:54.129Z,67.33
2023-03-21T04:33:26.311Z,63.67
2023-03-21T04:33:59.645Z,63.67
2023-03-21T04:34:31.426Z,64.33
2023-03-21T04:35:03.238Z,64.67
2023-03-21T04:35:37.642Z,64.00
2023-03-21T04:36:26.022Z,64.00
2023-03-21T04:36:57.763Z,68.00
2023-03-21T04:37:29.542Z,69.67
2023-03-21T04:38:01.258Z,70.67
2023-03-21T04:38:33.891Z,71.00
2023-03-21T04:39:12.350Z,71.00
2023-03-21T04:39:46.448Z,70.33
2023-03-21T04:40:18.969Z,70.00
2023-03-21T04:40:51.102Z,70.67
2023-03-21T04:41:22.894Z,70.00
2023-03-21T04:41:54.672Z,69.33
2023-03-21T04:42:26.484Z,69.00
2023-03-21T04:43:01.313Z,68.67
2023-03-21T04:43:33.120Z,67.67
2023-03-21T04:44:04.910Z,66.00
2023-03-21T04:44:36.896Z,65.67
2023-03-21T04:45:09.085Z,66.33
2023-03-21T04:45:41.206Z,67.00
2023-03-21T04:46:13.296Z,70.33
2023-03-21T04:46:45.371Z,76.33
2023-03-21T04:47:20.404Z,78.33
2023-03-21T04:47:52.219Z,78.33
2023-03-21T04:48:24.781Z,78.00
2023-03-21T04:48:56.623Z,77.00
2023-03-21T04:49:28.433Z,75.00
2023-03-21T04:50:00.332Z,70.00
2023-03-21T04:50:32.472Z,64.33
2023-03-21T04:51:04.306Z,61.33
2023-03-21T04:51:37.709Z,61.00
2023-03-21T04:52:09.530Z,61.00
2023-03-21T04:52:41.306Z,61.00
2023-03-21T04:53:13.330Z,61.00
2023-03-21T04:53:47.019Z,61.00
2023-03-21T04:54:19.186Z,60.00
2023-03-21T04:54:51.223Z,60.00
2023-03-21T04:55:23.290Z,60.33
2023-03-21T04:55:55.533Z,61.00
2023-03-21T04:56:32.851Z,61.00
2023-03-21T04:57:04.888Z,62.00
2023-03-21T04:57:38.429Z,74.67
2023-03-21T04:58:10.229Z,191.67
2023-03-21T04:58:42.598Z,195.33
2023-03-21T04:59:15.887Z,166.00
2023-03-21T04:59:47.799Z,148.67
2023-03-21T05:00:20.994Z,145.67
2023-03-21T05:00:53.238Z,151.67
2023-03-21T05:01:26.021Z,139.00
2023-03-21T05:01:58.801Z,130.33
2023-03-21T05:02:30.605Z,123.00
2023-03-21T05:03:02.498Z,118.33
2023-03-21T05:03:34.941Z,116.33
2023-03-21T05:04:07.270Z,115.00
2023-03-21T05:04:39.547Z,113.67
2023-03-21T05:05:12.239Z,114.00
2023-03-21T05:05:44.044Z,121.67
2023-03-21T05:06:16.227Z,122.67
2023-03-21T05:06:48.028Z,118.00
2023-03-21T05:07:19.778Z,98.67
2023-03-21T05:07:51.570Z,76.33
2023-03-21T05:08:23.380Z,77.00
2023-03-21T05:09:05.513Z,77.67
2023-03-21T05:09:37.641Z,82.33
2023-03-21T05:10:11.943Z,81.33
2023-03-21T05:10:43.957Z,71.67
2023-03-21T05:11:15.848Z,73.00
2023-03-21T05:11:47.868Z,77.67
2023-03-21T05:12:19.665Z,82.33
2023-03-21T05:12:51.400Z,109.67
2023-03-21T05:13:23.209Z,116.00
2023-03-21T05:13:55.028Z,110.67
2023-03-21T05:14:27.433Z,118.33
2023-03-21T05:14:59.184Z,117.67
2023-03-21T05:15:31.333Z,113.67
2023-03-21T05:16:03.118Z,113.00
2023-03-21T05:16:36.559Z,112.33
2023-03-21T05:17:08.426Z,176.67
2023-03-21T05:17:42.788Z,186.33
2023-03-21T05:18:15.460Z,146.33
2023-03-21T05:18:50.747Z,131.33
2023-03-21T05:19:40.559Z,128.00
2023-03-21T05:20:16.100Z,130.67
2023-03-21T05:20:54.212Z,128.33
2023-03-21T05:21:29.615Z,129.00
2023-03-21T05:22:10.137Z,125.33
2023-03-21T05:22:42.585Z,118.00
2023-03-21T05:23:18.577Z,119.00
2023-03-21T05:23:58.489Z,122.67
2023-03-21T05:24:32.180Z,121.33
2023-03-21T05:25:04.152Z,109.33
2023-03-21T05:25:38.309Z,92.00
2023-03-21T05:26:11.000Z,74.00
2023-03-21T05:26:45.035Z,57.67
2023-03-21T05:27:34.176Z,51.33
2023-03-21T05:28:07.771Z,52.67
2023-03-21T05:28:40.128Z,51.67
2023-03-21T05:29:12.027Z,42.67
2023-03-21T05:29:43.850Z,38.00
2023-03-21T05:30:18.262Z,37.33
2023-03-21T05:30:50.064Z,36.00
2023-03-21T05:31:21.902Z,33.33
2023-03-21T05:31:53.725Z,36.33
2023-03-21T05:32:25.450Z,53.67
2023-03-21T05:32:57.438Z,58.67
2023-03-21T05:33:29.239Z,52.00
2023-03-21T05:34:01.074Z,59.00
2023-03-21T05:34:32.866Z,58.00
2023-03-21T05:35:05.845Z,58.67
2023-03-21T05:35:38.259Z,58.00
2023-03-21T05:36:10.880Z,54.67
2023-03-21T05:36:42.734Z,48.00
2023-03-21T05:37:14.500Z,43.00
2023-03-21T05:37:46.279Z,40.00
2023-03-21T05:38:18.080Z,37.00
2023-03-21T05:38:49.890Z,36.33
2023-03-21T05:39:21.970Z,37.33
2023-03-21T05:39:53.870Z,37.33
2023-03-21T05:40:25.734Z,34.67
2023-03-21T05:40:57.541Z,31.00
2023-03-21T05:41:29.696Z,29.33
2023-03-21T05:42:01.541Z,30.33
2023-03-21T05:42:33.340Z,30.00
2023-03-21T05:43:05.082Z,28.67
2023-03-21T05:43:36.840Z,30.33
2023-03-21T05:44:08.623Z,34.00
2023-03-21T05:44:43.227Z,36.00
2023-03-21T05:45:15.835Z,38.00
2023-03-21T05:45:48.468Z,39.00
2023-03-21T05:46:20.346Z,39.00
2023-03-21T05:46:52.190Z,38.00
2023-03-21T05:47:23.992Z,35.33
2023-03-21T05:47:55.842Z,33.33
2023-03-21T05:48:27.606Z,31.33
2023-03-21T05:48:59.349Z,30.33
2023-03-21T05:49:31.291Z,32.00
2023-03-21T05:50:03.115Z,33.00
2023-03-21T05:50:35.341Z,34.00
2023-03-21T05:51:07.125Z,34.00
2023-03-21T05:51:38.886Z,35.00
2023-03-21T05:52:11.235Z,35.00
2023-03-21T05:52:43.033Z,35.00
2023-03-21T05:53:14.802Z,36.00
2023-03-21T05:53:46.643Z,270.67
2023-03-21T05:54:18.590Z,424.33
2023-03-21T05:54:50.512Z,308.67
2023-03-21T05:55:22.439Z,187.00
2023-03-21T05:55:54.214Z,154.33
2023-03-21T05:56:26.019Z,149.67
2023-03-21T05:56:57.863Z,126.00
2023-03-21T05:57:29.803Z,96.00
2023-03-21T05:58:01.595Z,62.67
2023-03-21T05:58:33.353Z,51.67
2023-03-21T05:59:05.164Z,53.67
2023-03-21T05:59:37.069Z,57.00
2023-03-21T06:00:09.881Z,55.67
2023-03-21T06:00:41.770Z,55.00
2023-03-21T06:01:13.561Z,51.00
2023-03-21T06:01:45.647Z,46.67
2023-03-21T06:02:17.526Z,47.67
2023-03-21T06:02:49.368Z,44.00
2023-03-21T06:03:21.332Z,41.00
2023-03-21T06:03:53.222Z,38.67
2023-03-21T06:04:25.805Z,39.00
2023-03-21T06:04:58.605Z,40.00
2023-03-21T06:05:30.904Z,40.33
2023-03-21T06:06:03.611Z,39.00
2023-03-21T06:06:35.478Z,40.00
2023-03-21T06:07:07.236Z,44.00
2023-03-21T06:07:40.005Z,45.67
2023-03-21T06:08:12.110Z,43.67
2023-03-21T06:08:43.852Z,40.33
2023-03-21T06:09:15.683Z,42.00
2023-03-21T06:09:47.454Z,51.67
2023-03-21T06:10:19.345Z,87.67
2023-03-21T06:10:51.130Z,89.00
2023-03-21T06:11:27.919Z,78.67
2023-03-21T06:12:00.232Z,76.00
2023-03-21T06:12:32.017Z,74.00
2023-03-21T06:13:04.779Z,72.00
2023-03-21T06:13:36.522Z,71.00
2023-03-21T06:14:08.266Z,70.33
2023-03-21T06:14:40.053Z,70.00
2023-03-21T06:15:12.672Z,69.33
2023-03-21T06:15:44.482Z,67.67
2023-03-21T06:16:16.424Z,67.00
2023-03-21T06:16:48.242Z,73.33
2023-03-21T06:17:20.278Z,72.33
2023-03-21T06:17:52.089Z,71.00
2023-03-21T06:18:23.841Z,66.00
2023-03-21T06:18:56.777Z,65.00
2023-03-21T06:19:28.502Z,65.67
2023-03-21T06:20:05.121Z,85.00
2023-03-21T06:20:36.945Z,94.00
2023-03-21T06:21:08.747Z,83.67
2023-03-21T06:21:40.543Z,80.67
2023-03-21T06:22:12.359Z,75.33
2023-03-21T06:22:44.554Z,128.67
2023-03-21T06:23:17.478Z,131.67
2023-03-21T06:23:51.868Z,99.00
2023-03-21T06:24:23.639Z,88.00
2023-03-21T06:24:55.505Z,69.67
2023-03-21T06:25:27.645Z,60.00
2023-03-21T06:25:59.434Z,60.33
2023-03-21T06:26:31.310Z,58.67
2023-03-21T06:27:04.069Z,60.00
2023-03-21T06:27:36.414Z,58.00
2023-03-21T06:28:08.277Z,53.67
2023-03-21T06:28:40.365Z,53.33
2023-03-21T06:29:12.577Z,54.00
2023-03-21T06:29:46.014Z,53.00
2023-03-21T06:30:18.592Z,52.67
2023-03-21T06:30:50.347Z,48.00
2023-03-21T06:31:26.717Z,45.67
2023-03-21T06:31:58.595Z,48.67
2023-03-21T06:32:30.461Z,49.33
2023-03-21T06:33:02.196Z,50.00
2023-03-21T06:33:34.046Z,48.67
2023-03-21T06:34:06.250Z,45.33
2023-03-21T06:34:39.496Z,41.33
2023-03-21T06:35:11.319Z,43.00
2023-03-21T06:35:43.095Z,45.00
2023-03-21T06:36:15.534Z,46.00
2023-03-21T06:36:47.360Z,46.00
2023-03-21T06:37:19.696Z,45.67
2023-03-21T06:37:51.431Z,46.00
2023-03-21T06:38:23.725Z,44.00
2023-03-21T06:38:55.616Z,40.67
2023-03-21T06:39:27.384Z,38.00
2023-03-21T06:39:59.144Z,39.67
2023-03-21T06:40:31.049Z,38.67
2023-03-21T06:41:04.828Z,40.67
2023-03-21T06:41:36.875Z,41.00
2023-03-21T06:42:08.692Z,42.00
2023-03-21T06:42:40.506Z,42.00
2023-03-21T06:43:27.386Z,41.67
2023-03-21T06:43:59.368Z,49.00
2023-03-21T06:44:32.460Z,48.67
2023-03-21T06:45:04.581Z,45.67
2023-03-21T06:45:36.614Z,40.67
2023-03-21T06:46:08.744Z,37.67
2023-03-21T06:46:40.537Z,36.00
2023-03-21T06:47:12.312Z,34.00
2023-03-21T06:47:44.141Z,32.33
2023-03-21T06:48:16.265Z,35.00
2023-03-21T06:48:48.444Z,36.00
2023-03-21T06:49:20.938Z,37.00
2023-03-21T06:49:53.903Z,37.00
2023-03-21T06:50:25.729Z,37.00
2023-03-21T06:50:57.609Z,37.00
2023-03-21T06:51:29.415Z,37.67
2023-03-21T06:52:01.276Z,42.00
2023-03-21T06:52:33.201Z,48.00
2023-03-21T06:53:04.963Z,129.00
2023-03-21T06:53:36.737Z,147.67
2023-03-21T06:54:08.727Z,102.67
2023-03-21T06:54:40.748Z,103.00
2023-03-21T06:55:12.644Z,84.67
2023-03-21T06:55:49.680Z,78.00
2023-03-21T06:56:21.508Z,72.33
2023-03-21T06:56:54.309Z,63.00
2023-03-21T06:57:26.061Z,55.00
2023-03-21T06:57:58.097Z,50.67
2023-03-21T06:58:29.862Z,47.67
2023-03-21T06:59:02.209Z,45.00
2023-03-21T06:59:34.117Z,42.00
2023-03-21T07:00:08.636Z,40.67
2023-03-21T07:00:40.476Z,40.00
2023-03-21T07:01:12.480Z,39.33
2023-03-21T07:01:44.400Z,38.33
2023-03-21T07:02:16.226Z,39.33
2023-03-21T07:02:51.059Z,41.33
2023-03-21T07:03:23.717Z,41.00
2023-03-21T07:03:57.571Z,39.00
2023-03-21T07:04:29.362Z,35.33
2023-03-21T07:05:01.166Z,33.00
2023-03-21T07:05:32.961Z,31.33
2023-03-21T07:06:11.821Z,30.33
2023-03-21T07:06:43.647Z,30.67
2023-03-21T07:07:15.957Z,33.00
2023-03-21T07:07:48.740Z,56.33
2023-03-21T07:08:20.747Z,64.67
2023-03-21T07:08:53.950Z,59.67
2023-03-21T07:09:28.215Z,58.00
2023-03-21T07:10:00.124Z,53.00
2023-03-21T07:10:32.275Z,46.67
2023-03-21T07:11:04.303Z,41.33
2023-03-21T07:11:37.104Z,40.00
2023-03-21T07:12:09.226Z,40.00
2023-03-21T07:12:41.291Z,41.33
2023-03-21T07:13:13.486Z,42.00
2023-03-21T07:13:45.707Z,42.00
2023-03-21T07:14:17.508Z,41.33
2023-03-21T07:14:49.324Z,40.67
2023-03-21T07:15:21.243Z,38.00
2023-03-21T07:15:54.567Z,35.67
2023-03-21T07:16:26.514Z,35.00
2023-03-21T07:16:58.323Z,34.00
2023-03-21T07:17:30.434Z,35.00
2023-03-21T07:18:02.217Z,35.67
2023-03-21T07:18:34.023Z,37.33
2023-03-21T07:19:05.932Z,39.00
2023-03-21T07:19:37.811Z,39.00
2023-03-21T07:20:12.799Z,38.67
2023-03-21T07:20:48.500Z,37.67
2023-03-21T07:21:20.559Z,36.67
2023-03-21T07:21:53.089Z,36.00
2023-03-21T07:22:25.630Z,36.00
2023-03-21T07:22:58.404Z,36.00
2023-03-21T07:23:30.272Z,36.00
2023-03-21T07:24:02.077Z,36.67
2023-03-21T07:24:33.849Z,38.00
2023-03-21T07:25:09.809Z,46.67
2023-03-21T07:25:41.990Z,49.33
2023-03-21T07:26:16.233Z,48.33
2023-03-21T07:26:47.960Z,48.00
2023-03-21T07:27:19.787Z,47.00
2023-03-21T07:27:51.652Z,47.00
2023-03-21T07:28:24.610Z,47.00
2023-03-21T07:28:56.383Z,46.33
2023-03-21T07:29:28.283Z,46.00
2023-03-21T07:30:00.485Z,47.00
2023-03-21T07:30:32.366Z,59.67
2023-03-21T07:31:07.226Z,80.00
2023-03-21T07:31:40.114Z,75.00
2023-03-21T07:32:11.987Z,68.67
2023-03-21T07:32:45.669Z,64.00
2023-03-21T07:33:17.438Z,61.67
2023-03-21T07:33:49.277Z,60.00
2023-03-21T07:34:21.068Z,59.00
2023-03-21T07:34:52.947Z,71.33
2023-03-21T07:35:24.722Z,178.00
2023-03-21T07:35:57.989Z,137.00
2023-03-21T07:36:29.871Z,94.33
2023-03-21T07:37:01.726Z,81.67
2023-03-21T07:37:33.560Z,77.67
2023-03-21T07:38:06.006Z,69.33